Terminal Aerodrome Forecast
Issued by NWS

Current Version | Previous Version | Text Only | Print | Product List | Glossary On
Versions: 1 2 3 4 5 6 7 8 9 10 11 12 13 14 15 16 17
000
FTUS41 KBTV 141720
TAFMSS
TAF
KMSS 141720Z 1418/1518 25012KT P6SM SKC
     FM142300 24008KT P6SM SKC
     FM150700 24004KT P6SM FEW250
     FM151400 00000KT P6SM BKN090=

USA.gov is the U.S. government's official web portal to all federal, state and local government web resources and services.